createdAt,value
2022-10-02T10:02:51.222Z,16.20
2022-10-02T10:05:27.190Z,16.50
2022-10-02T10:08:07.128Z,17.00
2022-10-02T10:10:41.643Z,17.40
2022-10-02T10:13:27.320Z,17.50
2022-10-02T10:16:19.210Z,17.50
2022-10-02T10:19:04.657Z,17.30
2022-10-02T10:21:45.651Z,17.20
2022-10-02T10:24:31.375Z,17.20
2022-10-02T10:27:16.970Z,17.40
2022-10-02T10:29:53.984Z,17.50
2022-10-02T10:32:35.984Z,17.50
2022-10-02T10:35:12.207Z,17.40
2022-10-02T10:38:12.016Z,17.40
2022-10-02T10:41:11.291Z,17.20
2022-10-02T10:44:02.438Z,17.10
2022-10-02T10:46:51.173Z,17.50
2022-10-02T10:49:37.914Z,18.00
2022-10-02T10:52:16.245Z,18.50
2022-10-02T10:54:48.567Z,18.80
2022-10-02T10:57:18.117Z,18.90
2022-10-02T10:59:48.408Z,19.10
2022-10-02T18:24:12.991Z,13.10
2022-10-02T18:26:49.625Z,13.10
2022-10-02T18:29:32.621Z,13.00
2022-10-02T18:31:59.815Z,12.90
2022-10-02T18:34:45.689Z,12.80
2022-10-02T18:37:32.275Z,12.80
2022-10-02T18:40:07.348Z,12.70
2022-10-02T18:42:48.801Z,12.70
2022-10-02T18:45:34.463Z,12.70
2022-10-02T18:48:19.702Z,12.60
2022-10-02T18:51:09.881Z,12.50
2022-10-02T18:53:43.311Z,12.50
2022-10-02T18:56:12.270Z,12.50
2022-10-02T18:58:47.228Z,12.50
2022-10-02T19:01:20.107Z,12.50
2022-10-02T19:03:51.155Z,12.40
2022-10-02T19:06:20.462Z,12.40
2022-10-02T19:09:06.676Z,12.40
2022-10-02T19:11:36.245Z,12.40
2022-10-02T19:14:14.183Z,12.20
2022-10-02T19:16:54.805Z,12.20
2022-10-02T19:19:24.477Z,12.20
2022-10-02T19:21:56.034Z,12.20
2022-10-02T20:01:30.865Z,11.00
2022-10-02T20:03:59.001Z,11.00
2022-10-02T20:06:27.915Z,11.00
2022-10-02T20:09:00.847Z,10.90
2022-10-02T20:11:47.832Z,10.90
2022-10-02T20:14:23.132Z,10.80
2022-10-02T20:17:08.710Z,10.80
2022-10-02T20:19:39.273Z,10.70
2022-10-02T20:22:13.433Z,10.70
2022-10-02T20:24:44.326Z,10.60
2022-10-02T20:27:13.114Z,10.50
2022-10-02T20:29:46.751Z,10.50
2022-10-02T20:32:18.229Z,10.50
2022-10-02T20:34:53.427Z,10.50
2022-10-02T20:37:26.306Z,10.40
2022-10-02T20:40:00.020Z,10.40
2022-10-02T20:42:36.018Z,10.40
2022-10-02T20:45:02.799Z,10.40
2022-10-02T20:47:29.550Z,10.40
2022-10-02T20:50:15.800Z,10.40
2022-10-02T20:52:42.534Z,10.30
2022-10-02T20:55:44.579Z,10.30
2022-10-02T20:58:29.655Z,10.30
2022-10-02T21:00:59.147Z,10.20
2022-10-02T21:03:30.940Z,10.20
2022-10-02T21:06:12.984Z,10.20
2022-10-02T21:08:48.829Z,10.20
2022-10-02T21:11:21.829Z,10.20
2022-10-02T21:13:51.630Z,10.20
2022-10-02T21:16:29.898Z,10.20
2022-10-02T21:19:04.455Z,10.20
2022-10-02T21:21:41.578Z,10.10
2022-10-02T21:24:17.467Z,10.00
2022-10-02T21:27:02.313Z,10.00
2022-10-02T21:29:44.000Z,10.00
2022-10-02T21:32:29.629Z,10.00
2022-10-02T21:35:34.194Z,10.00
2022-10-02T21:38:19.841Z,10.00
2022-10-02T21:41:22.036Z,9.90
2022-10-02T21:43:48.716Z,9.80
2022-10-02T21:46:22.125Z,9.80
2022-10-02T21:48:52.056Z,9.80
2022-10-02T21:51:38.298Z,9.70
2022-10-02T21:54:23.975Z,9.70
2022-10-02T21:57:05.725Z,9.70
2022-10-02T21:59:41.337Z,9.70
2022-10-02T22:02:19.500Z,9.70
2022-10-02T22:04:55.425Z,9.70
2022-10-02T22:07:31.805Z,9.70
2022-10-02T22:09:58.540Z,9.70
2022-10-02T22:12:43.967Z,9.70
2022-10-02T22:15:25.283Z,9.70
2022-10-02T22:17:51.986Z,9.70
2022-10-02T22:20:18.689Z,9.70
2022-10-02T22:23:03.430Z,9.70
2022-10-02T22:25:42.032Z,9.70
2022-10-02T22:28:14.444Z,9.70
2022-10-02T22:30:50.972Z,9.70
2022-10-02T22:33:38.769Z,9.70
2022-10-02T22:36:06.247Z,9.70
2022-10-02T22:38:38.006Z,9.60
2022-10-02T22:41:07.288Z,9.60
2022-10-02T22:43:47.246Z,9.60
2022-10-02T22:46:36.671Z,9.60
2022-10-02T22:49:13.251Z,9.60
2022-10-02T22:51:43.150Z,9.50
2022-10-02T22:54:13.478Z,9.50
2022-10-02T22:56:43.533Z,9.50
2022-10-02T22:59:19.984Z,9.50
2022-10-02T23:01:50.894Z,9.50
2022-10-02T23:04:18.288Z,9.40
2022-10-02T23:07:05.944Z,9.40
2022-10-02T23:10:02.204Z,9.40
2022-10-02T23:12:39.914Z,9.40
2022-10-02T23:15:29.732Z,9.30
2022-10-02T23:18:02.178Z,9.30
2022-10-02T23:20:33.375Z,9.30
2022-10-02T23:23:28.743Z,9.20
2022-10-02T23:25:58.090Z,9.10
2022-10-02T23:28:28.658Z,9.00
2022-10-02T23:31:13.441Z,9.00
2022-10-02T23:33:51.158Z,9.00
2022-10-02T23:36:22.781Z,9.00
2022-10-02T23:38:53.919Z,8.90
2022-10-02T23:41:40.595Z,8.90
2022-10-02T23:44:11.106Z,8.80
2022-10-02T23:47:00.091Z,8.70
2022-10-02T23:49:32.117Z,8.80
2022-10-02T23:52:31.549Z,8.70
2022-10-02T23:55:17.196Z,8.70
2022-10-02T23:58:12.596Z,8.60
